createdAt,value
2019-03-29T00:01:35.619Z,9.00
2019-03-29T00:04:05.938Z,9.10
2019-03-29T00:06:36.396Z,9.00
2019-03-29T00:09:06.605Z,9.10
2019-03-29T00:11:36.932Z,9.00
2019-03-29T00:14:07.301Z,9.10
2019-03-29T00:16:37.614Z,9.00
2019-03-29T00:19:07.939Z,9.00
2019-03-29T00:21:39.121Z,9.00
2019-03-29T00:24:08.606Z,8.80
2019-03-29T00:26:38.928Z,8.90
2019-03-29T00:29:09.278Z,9.00
2019-03-29T00:31:40.361Z,8.90
2019-03-29T00:34:10.686Z,8.90
2019-03-29T00:36:48.191Z,8.90
2019-03-29T00:39:38.901Z,8.70
2019-03-29T00:42:09.267Z,8.80
2019-03-29T00:44:40.349Z,8.70
2019-03-29T00:47:13.773Z,8.70
2019-03-29T00:49:48.179Z,8.70
2019-03-29T00:52:18.497Z,8.70
2019-03-29T00:54:52.930Z,8.60
2019-03-29T00:57:42.343Z,8.50
2019-03-29T01:00:14.345Z,8.50
2019-03-29T01:02:44.938Z,8.40
2019-03-29T01:05:15.001Z,8.50
2019-03-29T01:07:47.758Z,8.50
2019-03-29T01:10:18.077Z,8.40
2019-03-29T01:12:49.163Z,8.40
2019-03-29T01:15:38.890Z,8.40
2019-03-29T01:18:09.976Z,8.40
2019-03-29T01:20:59.433Z,8.40
2019-03-29T01:23:29.756Z,8.30
2019-03-29T01:26:00.967Z,8.50
2019-03-29T01:28:31.441Z,8.50
2019-03-29T01:31:02.061Z,8.40
2019-03-29T01:33:32.376Z,8.30
2019-03-29T01:36:02.716Z,8.30
2019-03-29T01:38:33.050Z,8.40
2019-03-29T01:41:03.484Z,8.40
2019-03-29T01:43:38.938Z,8.30
2019-03-29T01:46:13.347Z,8.30
2019-03-29T01:48:48.290Z,8.20
2019-03-29T01:51:18.113Z,8.20
2019-03-29T01:53:51.501Z,8.10
2019-03-29T01:56:43.262Z,8.10
2019-03-29T01:59:13.581Z,8.10
2019-03-29T02:01:44.715Z,8.10
2019-03-29T02:04:15.058Z,8.10
2019-03-29T02:06:45.786Z,8.00
2019-03-29T02:09:15.703Z,8.00
2019-03-29T02:11:46.049Z,8.00
2019-03-29T02:14:17.865Z,8.00
2019-03-29T02:16:55.862Z,7.90
2019-03-29T02:19:24.978Z,8.00
2019-03-29T02:21:55.299Z,8.10
2019-03-29T02:24:25.682Z,7.90
2019-03-29T02:26:55.973Z,8.00
2019-03-29T02:29:26.303Z,8.10
2019-03-29T02:31:57.132Z,8.00
2019-03-29T02:34:26.981Z,8.00
2019-03-29T02:36:57.297Z,8.00
2019-03-29T02:39:28.421Z,7.90
2019-03-29T02:41:58.734Z,7.80
2019-03-29T02:44:29.059Z,7.80
2019-03-29T02:46:59.410Z,7.80
2019-03-29T02:49:30.498Z,7.80
2019-03-29T02:52:20.234Z,7.80
2019-03-29T02:54:50.554Z,7.90
2019-03-29T02:57:21.656Z,7.90
2019-03-29T02:59:57.107Z,7.90
2019-03-29T03:02:27.813Z,8.00
2019-03-29T03:04:59.074Z,7.90
2019-03-29T03:07:36.736Z,7.90
2019-03-29T03:10:09.547Z,7.90
2019-03-29T03:12:40.884Z,7.90
2019-03-29T03:15:12.251Z,8.00
2019-03-29T03:18:01.950Z,7.90
2019-03-29T03:20:36.088Z,7.90
2019-03-29T03:23:06.406Z,7.90
2019-03-29T03:25:36.726Z,7.90
2019-03-29T03:28:07.070Z,7.80
2019-03-29T03:30:38.295Z,7.80
2019-03-29T03:33:08.523Z,7.80
2019-03-29T03:35:38.836Z,7.90
2019-03-29T03:38:09.147Z,7.80
2019-03-29T03:40:46.855Z,7.90
2019-03-29T03:43:19.229Z,7.70
2019-03-29T03:45:54.713Z,7.60
2019-03-29T03:48:25.798Z,7.80
2019-03-29T03:51:02.276Z,7.80
2019-03-29T03:53:52.989Z,7.70
2019-03-29T03:56:23.445Z,7.90
2019-03-29T03:58:54.594Z,7.90
2019-03-29T04:01:24.909Z,7.90
2019-03-29T04:03:56.054Z,7.90
2019-03-29T04:09:08.948Z,7.70
2019-03-29T04:11:44.375Z,7.80
2019-03-29T04:14:14.732Z,7.80
2019-03-29T04:17:05.443Z,7.80
2019-03-29T04:19:35.791Z,7.70
2019-03-29T04:22:06.111Z,7.80
2019-03-29T04:24:36.487Z,7.90
2019-03-29T04:27:06.825Z,7.70
2019-03-29T04:29:57.296Z,7.60
2019-03-29T04:32:27.631Z,7.60
2019-03-29T04:34:57.947Z,7.50
2019-03-29T04:37:28.293Z,7.60
2019-03-29T04:40:07.127Z,7.60
2019-03-29T04:42:28.975Z,7.60
2019-03-29T04:44:59.933Z,7.70
2019-03-29T04:47:29.642Z,7.60
2019-03-29T04:49:59.966Z,7.60
2019-03-29T04:52:30.631Z,7.40
2019-03-29T04:55:00.980Z,7.50
2019-03-29T04:57:31.293Z,7.40
2019-03-29T05:00:01.612Z,7.30
2019-03-29T05:02:31.960Z,7.20
2019-03-29T05:05:06.448Z,7.30
2019-03-29T05:07:37.682Z,7.20
2019-03-29T05:10:20.346Z,7.20
2019-03-29T05:12:39.080Z,7.20
2019-03-29T05:15:09.417Z,7.20
2019-03-29T05:17:41.781Z,7.20
2019-03-29T05:20:13.128Z,7.10
2019-03-29T05:22:43.471Z,7.20
2019-03-29T05:25:21.101Z,7.20
2019-03-29T05:27:51.686Z,7.10
2019-03-29T05:30:22.002Z,7.10
2019-03-29T05:32:52.344Z,7.10
2019-03-29T05:35:22.693Z,6.90
2019-03-29T05:37:53.009Z,7.10
2019-03-29T05:40:42.725Z,7.10
2019-03-29T05:43:13.047Z,7.10
2019-03-29T05:45:43.370Z,7.10
2019-03-29T05:48:13.720Z,7.20
2019-03-29T05:50:44.803Z,7.10
2019-03-29T05:53:15.138Z,7.10
2019-03-29T05:55:48.194Z,7.20
2019-03-29T05:58:16.588Z,7.20
2019-03-29T06:01:06.045Z,7.20
2019-03-29T06:03:36.363Z,7.20
2019-03-29T06:06:07.447Z,7.20
2019-03-29T06:08:37.806Z,7.20
2019-03-29T06:11:08.518Z,7.30
2019-03-29T06:13:39.861Z,7.20
2019-03-29T06:16:10.207Z,7.20
2019-03-29T06:18:40.528Z,7.10
2019-03-29T06:21:11.181Z,7.30
2019-03-29T06:23:42.306Z,7.30
2019-03-29T06:26:12.622Z,7.30
2019-03-29T06:28:42.945Z,7.30
2019-03-29T06:31:13.302Z,7.30
2019-03-29T06:33:44.771Z,7.40
2019-03-29T06:36:19.847Z,7.40
2019-03-29T06:38:50.175Z,7.30
2019-03-29T06:41:20.496Z,7.40
2019-03-29T06:43:53.916Z,7.80
2019-03-29T06:46:24.238Z,7.60
2019-03-29T06:48:54.564Z,7.50
2019-03-29T06:51:24.917Z,7.60
2019-03-29T06:53:56.009Z,7.70
2019-03-29T06:56:45.733Z,7.70
2019-03-29T06:59:16.824Z,7.90
2019-03-29T07:02:07.569Z,7.90
2019-03-29T07:04:37.895Z,7.90
2019-03-29T07:07:08.986Z,8.10
2019-03-29T07:09:43.488Z,8.10
2019-03-29T07:12:13.805Z,8.10
2019-03-29T07:14:45.746Z,8.20
2019-03-29T07:17:16.092Z,8.20
2019-03-29T07:19:46.834Z,8.20
2019-03-29T07:22:17.151Z,8.70
2019-03-29T07:24:48.778Z,9.60
2019-03-29T07:27:19.040Z,9.60
2019-03-29T07:29:50.409Z,9.10
2019-03-29T07:32:20.774Z,9.10
2019-03-29T07:34:51.212Z,9.00
2019-03-29T07:37:21.767Z,9.00
2019-03-29T07:39:53.942Z,9.00
2019-03-29T07:42:23.205Z,8.90
2019-03-29T07:44:53.618Z,9.10
2019-03-29T07:47:23.976Z,9.10
2019-03-29T07:49:55.309Z,9.10
2019-03-29T07:52:25.635Z,9.10
2019-03-29T07:54:56.003Z,9.10
2019-03-29T07:57:27.360Z,9.20
2019-03-29T07:59:58.175Z,9.20
2019-03-29T08:02:29.668Z,9.30
2019-03-29T08:04:59.610Z,9.30
2019-03-29T08:07:31.434Z,9.40
2019-03-29T08:10:03.321Z,9.40
2019-03-29T08:12:31.599Z,9.60
2019-03-29T08:15:02.514Z,9.60
2019-03-29T08:17:41.261Z,9.60
2019-03-29T08:20:38.793Z,9.70
2019-03-29T08:22:41.913Z,9.70
2019-03-29T08:27:55.713Z,9.80
2019-03-29T08:30:26.830Z,9.90
2019-03-29T08:32:57.158Z,9.90
2019-03-29T08:35:27.523Z,10.00
2019-03-29T08:37:57.880Z,10.10
2019-03-29T08:40:50.381Z,10.20
2019-03-29T08:43:20.739Z,10.20
2019-03-29T08:45:53.106Z,10.20
2019-03-29T08:48:23.429Z,10.20
2019-03-29T08:50:55.833Z,10.30
2019-03-29T08:53:27.654Z,10.40
2019-03-29T08:55:57.497Z,10.40
2019-03-29T08:58:33.991Z,10.40
2019-03-29T09:01:04.321Z,10.60
2019-03-29T09:03:34.636Z,10.50
2019-03-29T09:06:05.051Z,10.50
2019-03-29T09:08:35.371Z,10.70
2019-03-29T09:11:25.121Z,10.70
2019-03-29T09:13:55.443Z,10.70
2019-03-29T09:16:25.767Z,10.80
2019-03-29T09:18:56.128Z,11.00
2019-03-29T09:21:26.450Z,11.10
2019-03-29T09:23:57.798Z,11.00
2019-03-29T09:26:32.249Z,11.00
2019-03-29T09:29:02.570Z,11.10
2019-03-29T09:31:32.896Z,11.10
2019-03-29T09:34:03.389Z,11.30
2019-03-29T09:36:36.777Z,11.30
2019-03-29T09:39:08.130Z,11.30
2019-03-29T09:41:38.599Z,11.20
2019-03-29T09:44:08.925Z,11.40
2019-03-29T09:46:39.247Z,11.40
2019-03-29T09:49:09.600Z,11.40
2019-03-29T09:51:40.685Z,11.70
2019-03-29T09:54:11.016Z,11.70
2019-03-29T09:56:41.369Z,11.90
2019-03-29T09:59:11.695Z,12.00
2019-03-29T10:01:42.014Z,12.00
2019-03-29T10:04:12.359Z,11.90
2019-03-29T10:06:43.452Z,12.10
2019-03-29T10:09:17.910Z,12.00
2019-03-29T10:11:48.236Z,12.20
2019-03-29T10:14:18.562Z,12.10
2019-03-29T10:16:48.908Z,12.10
2019-03-29T10:19:19.991Z,12.30
2019-03-29T10:21:54.410Z,12.30
2019-03-29T10:24:24.755Z,12.40
2019-03-29T10:26:55.077Z,12.50
2019-03-29T10:29:46.840Z,12.50
2019-03-29T10:32:17.925Z,12.60
2019-03-29T10:34:48.245Z,12.60
2019-03-29T10:37:18.601Z,12.70
2019-03-29T10:39:48.923Z,12.60
2019-03-29T10:42:19.248Z,12.70
2019-03-29T10:44:49.697Z,12.70
2019-03-29T10:47:19.926Z,12.70
2019-03-29T10:49:50.276Z,12.70
2019-03-29T10:52:21.391Z,13.00
2019-03-29T10:54:51.712Z,13.00
2019-03-29T10:57:22.089Z,13.10
2019-03-29T10:59:52.469Z,13.10
2019-03-29T11:02:22.805Z,13.20
2019-03-29T11:04:53.114Z,13.10
2019-03-29T11:07:23.467Z,13.10
2019-03-29T11:09:53.778Z,13.10
2019-03-29T11:12:24.108Z,13.30
2019-03-29T11:14:55.217Z,13.40
2019-03-29T11:17:25.540Z,13.40
2019-03-29T11:19:56.888Z,13.40
2019-03-29T11:22:30.662Z,13.50
2019-03-29T11:25:01.753Z,13.50
2019-03-29T11:27:32.070Z,13.50
2019-03-29T11:30:02.422Z,13.50
2019-03-29T11:32:33.509Z,13.40
2019-03-29T11:35:03.832Z,13.40
2019-03-29T11:37:34.174Z,13.50
2019-03-29T11:40:25.914Z,13.60
2019-03-29T11:42:56.266Z,13.60
2019-03-29T11:45:26.639Z,13.90
2019-03-29T11:48:08.585Z,14.10
2019-03-29T11:50:29.287Z,14.00
2019-03-29T11:53:20.085Z,14.00
2019-03-29T11:55:50.433Z,13.90
2019-03-29T11:58:21.526Z,14.00
2019-03-29T12:01:10.206Z,14.00
2019-03-29T12:03:40.527Z,14.00
2019-03-29T12:06:10.861Z,14.00
2019-03-29T12:08:41.210Z,14.10
2019-03-29T12:11:12.294Z,14.30
2019-03-29T12:13:42.610Z,14.20
2019-03-29T12:16:12.957Z,14.10
2019-03-29T12:18:43.274Z,14.30
2019-03-29T12:21:35.793Z,14.50
2019-03-29T12:24:06.116Z,14.40
2019-03-29T12:26:36.637Z,14.60
2019-03-29T12:29:07.750Z,14.60
2019-03-29T12:34:19.780Z,14.60
2019-03-29T12:36:50.861Z,14.70
2019-03-29T12:39:21.183Z,14.70
2019-03-29T12:41:52.342Z,14.70
2019-03-29T12:44:22.626Z,14.60
2019-03-29T12:46:53.712Z,14.50
2019-03-29T12:49:28.157Z,14.50
2019-03-29T12:51:58.484Z,14.60
2019-03-29T12:54:29.824Z,14.70
2019-03-29T12:57:00.191Z,14.90
2019-03-29T12:59:32.870Z,14.90
2019-03-29T13:02:01.598Z,14.90
2019-03-29T13:04:39.863Z,14.90
2019-03-29T13:07:10.968Z,14.80
2019-03-29T13:09:41.287Z,14.80
2019-03-29T13:12:13.708Z,14.80
2019-03-29T13:14:44.799Z,14.90
2019-03-29T13:17:15.381Z,14.90
2019-03-29T13:19:47.524Z,15.10
2019-03-29T13:22:17.852Z,15.00
2019-03-29T13:24:48.174Z,15.00
2019-03-29T13:27:18.516Z,14.80
2019-03-29T13:29:49.979Z,14.80
2019-03-29T13:32:21.060Z,15.40
2019-03-29T13:34:56.524Z,15.40
2019-03-29T13:37:27.860Z,15.40
2019-03-29T13:39:58.176Z,15.30
2019-03-29T13:42:30.567Z,15.30
2019-03-29T13:45:02.926Z,15.30
2019-03-29T13:47:37.516Z,15.50
2019-03-29T13:50:08.596Z,15.60
2019-03-29T13:52:43.025Z,15.60
2019-03-29T13:55:32.820Z,15.70
2019-03-29T13:58:03.594Z,15.60
2019-03-29T14:00:34.683Z,15.50
2019-03-29T14:03:12.346Z,15.50
2019-03-29T14:05:42.667Z,15.40
2019-03-29T14:08:12.994Z,15.40
2019-03-29T14:10:44.108Z,15.70
2019-03-29T14:13:14.442Z,15.70
2019-03-29T14:15:44.776Z,16.00
2019-03-29T14:18:15.899Z,15.90
2019-03-29T14:20:46.569Z,15.90
2019-03-29T14:23:16.889Z,15.90
2019-03-29T14:25:47.997Z,15.90
2019-03-29T14:28:18.423Z,15.90
2019-03-29T14:30:49.446Z,16.00
2019-03-29T14:33:41.218Z,15.90
2019-03-29T14:36:12.307Z,15.90
2019-03-29T14:38:42.627Z,15.90
2019-03-29T14:41:19.116Z,15.80
2019-03-29T14:43:50.462Z,15.60
2019-03-29T14:46:20.774Z,15.70
2019-03-29T14:48:53.161Z,15.70
2019-03-29T14:51:24.515Z,15.70
2019-03-29T14:53:54.835Z,15.80
2019-03-29T14:56:44.553Z,15.90
2019-03-29T14:59:15.642Z,15.80
2019-03-29T15:01:45.957Z,15.80
2019-03-29T15:04:16.300Z,15.60
2019-03-29T15:06:46.620Z,15.50
2019-03-29T15:09:24.126Z,15.40
2019-03-29T15:12:00.577Z,15.40
2019-03-29T15:14:30.916Z,15.50
2019-03-29T15:17:02.258Z,15.40
2019-03-29T15:19:32.577Z,15.40
2019-03-29T15:22:07.017Z,15.50
2019-03-29T15:24:57.723Z,15.40
2019-03-29T15:27:48.468Z,15.30
2019-03-29T15:30:19.550Z,15.20
2019-03-29T15:32:55.006Z,15.20
2019-03-29T15:35:25.609Z,15.20
2019-03-29T15:37:55.928Z,15.10
2019-03-29T15:40:26.275Z,15.20
2019-03-29T15:42:58.638Z,15.20
2019-03-29T15:45:28.968Z,15.20
2019-03-29T15:47:59.317Z,15.30
2019-03-29T15:50:35.781Z,15.20
2019-03-29T15:53:12.271Z,15.20
2019-03-29T15:55:42.597Z,15.20
2019-03-29T15:58:12.913Z,15.10
2019-03-29T16:00:43.266Z,15.10
2019-03-29T16:03:13.590Z,15.10
2019-03-29T16:05:44.683Z,15.20
2019-03-29T16:08:15.034Z,15.10
2019-03-29T16:10:45.355Z,15.20
2019-03-29T16:13:15.678Z,15.10
2019-03-29T16:15:46.040Z,15.10
2019-03-29T16:18:17.127Z,15.10
2019-03-29T16:20:48.465Z,15.00
2019-03-29T16:23:19.619Z,15.10
2019-03-29T16:25:49.938Z,14.90
2019-03-29T16:28:20.268Z,14.90
2019-03-29T16:30:51.642Z,14.90
2019-03-29T16:33:22.988Z,14.90
2019-03-29T16:35:55.354Z,14.90
2019-03-29T16:38:47.131Z,14.90
2019-03-29T16:41:19.243Z,14.90
2019-03-29T16:43:53.689Z,14.90
2019-03-29T16:46:24.009Z,15.00
2019-03-29T16:51:37.831Z,14.90
2019-03-29T16:54:08.155Z,14.80
2019-03-29T16:56:38.480Z,14.80
2019-03-29T16:59:08.855Z,14.80
2019-03-29T17:01:39.171Z,14.80
2019-03-29T17:04:09.492Z,14.80
2019-03-29T17:06:39.847Z,14.70
2019-03-29T17:09:10.178Z,14.70
2019-03-29T17:11:42.280Z,14.60
2019-03-29T17:14:12.627Z,14.60
2019-03-29T17:16:46.019Z,14.60
2019-03-29T17:19:37.783Z,14.50
2019-03-29T17:22:08.110Z,14.50
2019-03-29T17:24:38.439Z,14.40
2019-03-29T17:27:08.787Z,14.40
2019-03-29T17:29:39.111Z,14.40
2019-03-29T17:32:09.744Z,14.30
2019-03-29T17:34:40.090Z,14.40
2019-03-29T17:37:10.410Z,14.30
2019-03-29T17:39:40.730Z,14.20
2019-03-29T17:42:11.075Z,14.20
2019-03-29T17:44:45.485Z,14.10
2019-03-29T17:47:15.812Z,14.10
2019-03-29T17:49:46.164Z,14.00
2019-03-29T17:52:38.668Z,14.00
2019-03-29T17:55:09.013Z,13.90
2019-03-29T17:57:39.341Z,14.00
2019-03-29T18:00:10.690Z,13.90
2019-03-29T18:02:41.038Z,13.90
2019-03-29T18:05:11.366Z,13.90
2019-03-29T18:07:41.689Z,13.90
2019-03-29T18:10:14.086Z,13.90
2019-03-29T18:12:44.418Z,13.80
2019-03-29T18:15:15.506Z,13.70
2019-03-29T18:17:45.867Z,13.60
2019-03-29T18:20:16.197Z,13.60
2019-03-29T18:22:46.529Z,13.50
2019-03-29T18:25:16.894Z,13.40
2019-03-29T18:27:47.580Z,13.40
2019-03-29T18:30:17.543Z,13.40
2019-03-29T18:32:47.894Z,13.30
2019-03-29T18:35:18.218Z,13.20
2019-03-29T18:38:07.685Z,13.20
2019-03-29T18:40:38.302Z,13.10
2019-03-29T18:43:08.918Z,13.10
2019-03-29T18:45:41.599Z,13.10
2019-03-29T18:48:10.622Z,13.00
2019-03-29T18:50:40.957Z,13.00
2019-03-29T18:53:15.398Z,13.00
2019-03-29T18:55:45.728Z,13.00
2019-03-29T18:58:16.058Z,12.90
2019-03-29T19:00:46.421Z,12.90
2019-03-29T19:03:16.753Z,12.90
2019-03-29T19:05:47.087Z,12.90
2019-03-29T19:08:17.449Z,12.90
2019-03-29T19:10:47.781Z,12.80
2019-03-29T19:13:18.104Z,12.80
2019-03-29T19:15:48.471Z,12.80
2019-03-29T19:18:18.795Z,12.80
2019-03-29T19:20:49.888Z,12.70
2019-03-29T19:23:20.248Z,12.70
2019-03-29T19:25:51.349Z,12.70
2019-03-29T19:28:21.935Z,12.70
2019-03-29T19:30:52.290Z,12.70
2019-03-29T19:33:22.628Z,12.80
2019-03-29T19:35:52.968Z,12.70
2019-03-29T19:38:26.635Z,12.70
2019-03-29T19:40:56.960Z,12.70
2019-03-29T19:43:27.287Z,12.70
2019-03-29T19:45:58.004Z,12.70
2019-03-29T19:48:29.097Z,12.60
2019-03-29T19:50:59.422Z,12.60
2019-03-29T19:53:29.784Z,12.60
2019-03-29T19:56:00.917Z,12.50
2019-03-29T19:58:35.328Z,12.50
2019-03-29T20:01:24.003Z,12.50
2019-03-29T20:03:54.337Z,12.50
2019-03-29T20:06:25.823Z,12.40
2019-03-29T20:08:55.273Z,12.40
2019-03-29T20:11:25.595Z,12.40
2019-03-29T20:13:55.928Z,12.40
2019-03-29T20:16:26.686Z,12.30
2019-03-29T20:18:56.964Z,12.30
2019-03-29T20:21:27.301Z,12.30
2019-03-29T20:23:57.672Z,12.20
2019-03-29T20:26:28.014Z,12.20
2019-03-29T20:28:58.346Z,12.20
2019-03-29T20:31:29.729Z,12.10
2019-03-29T20:34:00.062Z,12.00
2019-03-29T20:36:30.391Z,11.90
2019-03-29T20:39:00.803Z,12.00
2019-03-29T20:41:31.137Z,12.10
2019-03-29T20:44:01.482Z,12.10
2019-03-29T20:46:31.865Z,12.10
2019-03-29T20:49:02.200Z,12.10
2019-03-29T20:51:32.526Z,12.00
2019-03-29T20:54:02.888Z,12.00
2019-03-29T20:59:17.752Z,11.90
2019-03-29T21:01:52.503Z,11.80
2019-03-29T21:04:20.223Z,11.80
2019-03-29T21:06:50.585Z,11.80
2019-03-29T21:09:20.929Z,11.90
2019-03-29T21:11:51.277Z,11.80
2019-03-29T21:14:21.639Z,11.80
2019-03-29T21:16:51.987Z,11.80
2019-03-29T21:19:22.339Z,11.70
2019-03-29T21:21:52.700Z,11.70
2019-03-29T21:24:23.278Z,11.70
2019-03-29T21:26:54.383Z,11.60
2019-03-29T21:29:25.481Z,11.60
2019-03-29T21:31:55.887Z,11.60
2019-03-29T21:34:26.160Z,11.50
2019-03-29T21:36:58.567Z,11.60
2019-03-29T21:39:31.221Z,11.50
2019-03-29T21:41:59.261Z,11.50
2019-03-29T21:44:29.609Z,11.50
2019-03-29T21:46:59.962Z,11.40
2019-03-29T21:49:30.322Z,11.40
2019-03-29T21:52:01.769Z,11.40
2019-03-29T21:54:32.863Z,11.40
2019-03-29T21:57:03.247Z,11.40
2019-03-29T21:59:33.607Z,11.40
2019-03-29T22:02:25.102Z,11.30
2019-03-29T22:04:55.449Z,11.30
2019-03-29T22:07:31.913Z,11.30
2019-03-29T22:10:02.266Z,11.20
2019-03-29T22:12:32.600Z,11.20
2019-03-29T22:15:02.944Z,11.10
2019-03-29T22:17:33.286Z,11.10
2019-03-29T22:20:04.379Z,11.10
2019-03-29T22:22:55.107Z,11.10
2019-03-29T22:25:25.439Z,11.20
2019-03-29T22:27:56.546Z,11.10
2019-03-29T22:30:46.256Z,11.10
2019-03-29T22:33:16.686Z,11.00
2019-03-29T22:35:47.188Z,10.90
2019-03-29T22:38:18.092Z,10.90
2019-03-29T22:40:53.467Z,10.90
2019-03-29T22:43:45.224Z,10.90
2019-03-29T22:46:15.555Z,10.90
2019-03-29T22:48:52.346Z,10.90
2019-03-29T22:51:17.002Z,10.90
2019-03-29T22:53:48.770Z,10.90
2019-03-29T22:56:19.095Z,10.90
2019-03-29T22:58:50.476Z,10.90
2019-03-29T23:01:21.574Z,10.70
2019-03-29T23:03:51.899Z,10.70
2019-03-29T23:06:22.266Z,10.70
2019-03-29T23:08:52.599Z,10.70
2019-03-29T23:11:23.696Z,10.60
2019-03-29T23:13:57.619Z,10.60
2019-03-29T23:16:30.426Z,10.60
2019-03-29T23:19:06.430Z,10.60
2019-03-29T23:21:28.634Z,10.60
2019-03-29T23:23:59.727Z,10.50
2019-03-29T23:26:30.153Z,10.50
2019-03-29T23:29:00.409Z,10.50
2019-03-29T23:31:31.507Z,10.50
2019-03-29T23:34:04.913Z,10.50
2019-03-29T23:36:35.265Z,10.50
2019-03-29T23:39:05.596Z,10.50
2019-03-29T23:41:36.699Z,10.20
2019-03-29T23:44:29.229Z,10.20
2019-03-29T23:46:59.552Z,10.20
2019-03-29T23:49:30.909Z,10.30
2019-03-29T23:52:07.397Z,10.30
2019-03-29T23:54:37.721Z,10.30
2019-03-29T23:57:08.060Z,10.20
2019-03-29T23:59:38.416Z,10.20
